KGDV/GDV METAR and TAF weather

Enter ICAO airport designator
Station Type Date Time Source
KGDV METAR 2022/05/25 00:56 UTC NOAA

KGDV 250056Z AUTO VRB04KT 10SM CLR 19/00 A2997 RMK AO2 SLP148 T01890000


Station Type Date Time Source
KGDV Decoded METAR 2022/05/25 00:56 UTC NOAA

Glendive, Dawson Community Airport, MT, United States (KGDV) 47-08N 104-48W
May 24, 2022 - 08:56 PM EDT / 2022.05.25 0056 UTC
Wind: Variable at 5 MPH (4 KT):0
Visibility: 10 mile(s):0
Sky conditions: clear
Temperature: 66.0 F (18.9 C)
Dew Point: 32.0 F (0.0 C)
Relative Humidity: 27%
Pressure (altimeter): 29.97 in. Hg (1014 hPa)
ob: KGDV 250056Z AUTO VRB04KT 10SM CLR 19/00 A2997 RMK AO2 SLP148 T01890000
cycle: 1

Station Type Date Time Source
KGDV TAF 2022/05/24 18:30 UTC NOAA

TAF KGDV 241729Z 2418/2518 14007KT P6SM FEW080
FM250200 VRB05KT P6SM SCT120
FM251500 20008KT P6SM FEW060

Example: see airport list